sensor_id;sensor_type;location;lat;lon;timestamp;pressure;altitude;pressure_sealevel;temperature;humidity
57114;BME280;42994;51.606;9.988;2023-07-09T00:01:44;99429.56;;;18.67;100.00
57114;BME280;42994;51.606;9.988;2023-07-09T00:04:11;99429.19;;;18.51;100.00
57114;BME280;42994;51.606;9.988;2023-07-09T00:06:38;99437.72;;;18.67;100.00
57114;BME280;42994;51.606;9.988;2023-07-09T00:09:05;99431.56;;;18.59;100.00
57114;BME280;42994;51.606;9.988;2023-07-09T00:11:32;99435.31;;;18.35;100.00
57114;BME280;42994;51.606;9.988;2023-07-09T00:14:00;99429.66;;;18.06;100.00
57114;BME280;42994;51.606;9.988;2023-07-09T00:16:27;99433.84;;;17.72;100.00
57114;BME280;42994;51.606;9.988;2023-07-09T00:18:54;99435.88;;;17.95;100.00
57114;BME280;42994;51.606;9.988;2023-07-09T00:21:21;99435.31;;;18.04;100.00
57114;BME280;42994;51.606;9.988;2023-07-09T00:23:49;99433.47;;;18.17;100.00
57114;BME280;42994;51.606;9.988;2023-07-09T00:26:16;99434.56;;;18.28;100.00
57114;BME280;42994;51.606;9.988;2023-07-09T00:28:45;99435.75;;;18.32;100.00
57114;BME280;42994;51.606;9.988;2023-07-09T00:31:15;99441.19;;;18.32;100.00
57114;BME280;42994;51.606;9.988;2023-07-09T00:33:42;99439.50;;;18.19;100.00
57114;BME280;42994;51.606;9.988;2023-07-09T00:36:13;99439.94;;;18.16;100.00
57114;BME280;42994;51.606;9.988;2023-07-09T00:38:41;99441.63;;;18.17;100.00
57114;BME280;42994;51.606;9.988;2023-07-09T00:41:15;99438.31;;;18.15;100.00
57114;BME280;42994;51.606;9.988;2023-07-09T00:43:45;99436.84;;;18.00;100.00
57114;BME280;42994;51.606;9.988;2023-07-09T00:47:09;99432.56;;;17.93;100.00
57114;BME280;42994;51.606;9.988;2023-07-09T00:49:05;99428.47;;;18.02;100.00
57114;BME280;42994;51.606;9.988;2023-07-09T00:51:38;99428.25;;;17.66;100.00
57114;BME280;42994;51.606;9.988;2023-07-09T00:54:18;99431.34;;;17.70;100.00
57114;BME280;42994;51.606;9.988;2023-07-09T00:56:49;99429.13;;;17.85;100.00
57114;BME280;42994;51.606;9.988;2023-07-09T00:59:20;99426.31;;;17.74;100.00
57114;BME280;42994;51.606;9.988;2023-07-09T01:01:49;99431.81;;;17.67;100.00
57114;BME280;42994;51.606;9.988;2023-07-09T01:04:19;99422.34;;;17.21;100.00
57114;BME280;42994;51.606;9.988;2023-07-09T01:06:50;99425.25;;;17.19;100.00
57114;BME280;42994;51.606;9.988;2023-07-09T01:09:18;99424.75;;;17.10;100.00
57114;BME280;42994;51.606;9.988;2023-07-09T01:11:44;99435.66;;;17.22;100.00
57114;BME280;42994;51.606;9.988;2023-07-09T01:14:13;99434.09;;;17.52;100.00
57114;BME280;42994;51.606;9.988;2023-07-09T01:16:46;99432.03;;;17.28;100.00
57114;BME280;42994;51.606;9.988;2023-07-09T01:19:21;99434.91;;;17.52;100.00
57114;BME280;42994;51.606;9.988;2023-07-09T01:21:51;99433.47;;;17.49;100.00
57114;BME280;42994;51.606;9.988;2023-07-09T01:24:50;99432.56;;;17.56;100.00
57114;BME280;42994;51.606;9.988;2023-07-09T01:27:19;99434.69;;;17.54;100.00
57114;BME280;42994;51.606;9.988;2023-07-09T01:29:48;99435.97;;;17.51;100.00
57114;BME280;42994;51.606;9.988;2023-07-09T01:32:15;99435.81;;;17.46;100.00
57114;BME280;42994;51.606;9.988;2023-07-09T01:34:45;99439.34;;;17.28;100.00
57114;BME280;42994;51.606;9.988;2023-07-09T01:37:15;99436.09;;;17.19;100.00
57114;BME280;42994;51.606;9.988;2023-07-09T01:39:42;99439.84;;;17.00;100.00
57114;BME280;42994;51.606;9.988;2023-07-09T01:42:09;99429.28;;;16.91;100.00
57114;BME280;42994;51.606;9.988;2023-07-09T01:44:36;99432.13;;;17.03;100.00
57114;BME280;42994;51.606;9.988;2023-07-09T01:47:04;99434.66;;;16.98;100.00
57114;BME280;42994;51.606;9.988;2023-07-09T01:49:31;99436.94;;;17.01;100.00
57114;BME280;42994;51.606;9.988;2023-07-09T01:52:00;99438.03;;;17.12;100.00
57114;BME280;42994;51.606;9.988;2023-07-09T01:54:31;99431.19;;;16.91;100.00
57114;BME280;42994;51.606;9.988;2023-07-09T01:57:13;99423.59;;;17.00;100.00
57114;BME280;42994;51.606;9.988;2023-07-09T01:59:41;99435.44;;;17.05;100.00
57114;BME280;42994;51.606;9.988;2023-07-09T02:02:09;99427.56;;;16.97;100.00
57114;BME280;42994;51.606;9.988;2023-07-09T02:04:45;99431.63;;;16.88;100.00
57114;BME280;42994;51.606;9.988;2023-07-09T02:07:12;99432.56;;;17.00;100.00
57114;BME280;42994;51.606;9.988;2023-07-09T02:09:40;99422.75;;;16.99;100.00
57114;BME280;42994;51.606;9.988;2023-07-09T02:12:08;99421.16;;;16.41;100.00
57114;BME280;42994;51.606;9.988;2023-07-09T02:14:35;99421.84;;;16.30;100.00
57114;BME280;42994;51.606;9.988;2023-07-09T02:17:02;99425.53;;;16.67;100.00
57114;BME280;42994;51.606;9.988;2023-07-09T02:19:30;99435.47;;;16.73;100.00
57114;BME280;42994;51.606;9.988;2023-07-09T02:21:57;99426.38;;;16.43;100.00
57114;BME280;42994;51.606;9.988;2023-07-09T02:24:25;99423.09;;;16.34;100.00
57114;BME280;42994;51.606;9.988;2023-07-09T02:26:54;99420.66;;;16.51;100.00
57114;BME280;42994;51.606;9.988;2023-07-09T02:29:20;99429.75;;;16.31;100.00
57114;BME280;42994;51.606;9.988;2023-07-09T02:31:49;99417.44;;;16.61;100.00
57114;BME280;42994;51.606;9.988;2023-07-09T02:34:15;99416.00;;;16.65;100.00
57114;BME280;42994;51.606;9.988;2023-07-09T02:36:42;99424.59;;;16.55;100.00
57114;BME280;42994;51.606;9.988;2023-07-09T02:39:09;99414.88;;;16.47;100.00
57114;BME280;42994;51.606;9.988;2023-07-09T02:41:36;99422.69;;;16.30;100.00
57114;BME280;42994;51.606;9.988;2023-07-09T02:44:04;99418.63;;;16.14;100.00
57114;BME280;42994;51.606;9.988;2023-07-09T02:46:32;99417.91;;;16.32;100.00
57114;BME280;42994;51.606;9.988;2023-07-09T02:48:58;99424.09;;;16.40;100.00
57114;BME280;42994;51.606;9.988;2023-07-09T02:51:25;99420.50;;;16.46;100.00
57114;BME280;42994;51.606;9.988;2023-07-09T02:53:53;99416.41;;;16.37;100.00
57114;BME280;42994;51.606;9.988;2023-07-09T02:56:19;99422.44;;;16.07;100.00
57114;BME280;42994;51.606;9.988;2023-07-09T02:58:46;99421.63;;;15.48;100.00
57114;BME280;42994;51.606;9.988;2023-07-09T03:01:15;99418.91;;;16.06;100.00
57114;BME280;42994;51.606;9.988;2023-07-09T03:03:41;99422.34;;;16.20;100.00
57114;BME280;42994;51.606;9.988;2023-07-09T03:06:09;99424.81;;;16.28;100.00
57114;BME280;42994;51.606;9.988;2023-07-09T03:08:36;99420.22;;;16.29;100.00
57114;BME280;42994;51.606;9.988;2023-07-09T03:11:09;99423.94;;;16.28;100.00
57114;BME280;42994;51.606;9.988;2023-07-09T03:13:36;99422.31;;;16.27;100.00
57114;BME280;42994;51.606;9.988;2023-07-09T03:16:03;99431.47;;;16.26;100.00
57114;BME280;42994;51.606;9.988;2023-07-09T03:18:32;99438.16;;;16.23;100.00
57114;BME280;42994;51.606;9.988;2023-07-09T03:20:59;99432.75;;;16.23;100.00
57114;BME280;42994;51.606;9.988;2023-07-09T03:23:26;99441.19;;;16.02;100.00
57114;BME280;42994;51.606;9.988;2023-07-09T03:25:54;99430.47;;;15.16;100.00
57114;BME280;42994;51.606;9.988;2023-07-09T03:28:21;99427.81;;;14.83;100.00
57114;BME280;42994;51.606;9.988;2023-07-09T03:30:49;99430.00;;;15.33;100.00
57114;BME280;42994;51.606;9.988;2023-07-09T03:33:17;99445.47;;;15.71;100.00
57114;BME280;42994;51.606;9.988;2023-07-09T03:35:46;99445.41;;;15.84;100.00
57114;BME280;42994;51.606;9.988;2023-07-09T03:38:12;99444.16;;;15.93;100.00
57114;BME280;42994;51.606;9.988;2023-07-09T03:40:39;99441.22;;;15.95;100.00
57114;BME280;42994;51.606;9.988;2023-07-09T03:43:07;99443.78;;;15.83;100.00
57114;BME280;42994;51.606;9.988;2023-07-09T03:45:35;99436.88;;;15.35;100.00
57114;BME280;42994;51.606;9.988;2023-07-09T03:48:04;99424.88;;;15.11;100.00
57114;BME280;42994;51.606;9.988;2023-07-09T03:50:31;99444.47;;;15.58;100.00
57114;BME280;42994;51.606;9.988;2023-07-09T03:52:59;99450.88;;;15.78;100.00
57114;BME280;42994;51.606;9.988;2023-07-09T03:55:26;99445.00;;;15.87;100.00
57114;BME280;42994;51.606;9.988;2023-07-09T03:57:53;99449.41;;;15.82;100.00
57114;BME280;42994;51.606;9.988;2023-07-09T04:00:20;99451.28;;;15.68;100.00
57114;BME280;42994;51.606;9.988;2023-07-09T04:02:47;99451.09;;;15.76;100.00
57114;BME280;42994;51.606;9.988;2023-07-09T04:05:14;99452.53;;;15.72;100.00
57114;BME280;42994;51.606;9.988;2023-07-09T04:07:41;99447.09;;;15.85;100.00
57114;BME280;42994;51.606;9.988;2023-07-09T04:10:09;99445.41;;;15.91;100.00
57114;BME280;42994;51.606;9.988;2023-07-09T04:12:36;99445.19;;;15.92;100.00
57114;BME280;42994;51.606;9.988;2023-07-09T04:15:04;99455.13;;;15.99;100.00
57114;BME280;42994;51.606;9.988;2023-07-09T04:17:31;99455.81;;;15.87;100.00
57114;BME280;42994;51.606;9.988;2023-07-09T04:19:58;99452.56;;;15.65;100.00
57114;BME280;42994;51.606;9.988;2023-07-09T04:22:25;99443.13;;;15.88;100.00
57114;BME280;42994;51.606;9.988;2023-07-09T04:24:52;99457.00;;;15.98;100.00
57114;BME280;42994;51.606;9.988;2023-07-09T04:27:20;99457.81;;;15.99;100.00
57114;BME280;42994;51.606;9.988;2023-07-09T04:29:46;99447.59;;;16.07;100.00
57114;BME280;42994;51.606;9.988;2023-07-09T04:32:14;99445.06;;;16.12;100.00
57114;BME280;42994;51.606;9.988;2023-07-09T04:34:42;99457.50;;;16.20;100.00
57114;BME280;42994;51.606;9.988;2023-07-09T04:37:10;99445.97;;;16.00;100.00
57114;BME280;42994;51.606;9.988;2023-07-09T04:39:37;99452.50;;;15.85;100.00
57114;BME280;42994;51.606;9.988;2023-07-09T04:42:05;99447.28;;;15.90;100.00
57114;BME280;42994;51.606;9.988;2023-07-09T04:44:33;99456.66;;;16.26;100.00
57114;BME280;42994;51.606;9.988;2023-07-09T04:47:00;99465.88;;;16.44;100.00
57114;BME280;42994;51.606;9.988;2023-07-09T04:49:27;99459.44;;;16.45;100.00
57114;BME280;42994;51.606;9.988;2023-07-09T04:51:54;99480.47;;;16.43;100.00
57114;BME280;42994;51.606;9.988;2023-07-09T04:54:21;99479.38;;;16.50;100.00
57114;BME280;42994;51.606;9.988;2023-07-09T04:56:48;99474.97;;;16.56;100.00
57114;BME280;42994;51.606;9.988;2023-07-09T04:59:15;99463.84;;;16.64;100.00
57114;BME280;42994;51.606;9.988;2023-07-09T05:01:43;99472.16;;;16.69;100.00
57114;BME280;42994;51.606;9.988;2023-07-09T05:04:10;99470.00;;;16.85;100.00
57114;BME280;42994;51.606;9.988;2023-07-09T05:06:37;99460.47;;;17.01;100.00
57114;BME280;42994;51.606;9.988;2023-07-09T05:09:04;99468.47;;;17.14;100.00
57114;BME280;42994;51.606;9.988;2023-07-09T05:11:35;99477.25;;;17.09;100.00
57114;BME280;42994;51.606;9.988;2023-07-09T05:14:02;99475.09;;;17.18;100.00
57114;BME280;42994;51.606;9.988;2023-07-09T05:16:29;99484.47;;;17.16;100.00
57114;BME280;42994;51.606;9.988;2023-07-09T05:18:57;99472.56;;;17.42;100.00
57114;BME280;42994;51.606;9.988;2023-07-09T05:21:24;99480.84;;;17.65;100.00
57114;BME280;42994;51.606;9.988;2023-07-09T05:23:50;99478.78;;;17.79;100.00
57114;BME280;42994;51.606;9.988;2023-07-09T05:26:17;99473.69;;;17.90;100.00
57114;BME280;42994;51.606;9.988;2023-07-09T05:28:44;99479.78;;;18.03;100.00
57114;BME280;42994;51.606;9.988;2023-07-09T05:31:11;99470.03;;;18.14;100.00
57114;BME280;42994;51.606;9.988;2023-07-09T05:33:38;99477.28;;;18.32;100.00
57114;BME280;42994;51.606;9.988;2023-07-09T05:36:08;99468.47;;;18.49;100.00
57114;BME280;42994;51.606;9.988;2023-07-09T05:38:39;99469.94;;;18.63;100.00
57114;BME280;42994;51.606;9.988;2023-07-09T05:41:05;99480.84;;;18.75;100.00
57114;BME280;42994;51.606;9.988;2023-07-09T05:43:33;99472.50;;;19.12;100.00
57114;BME280;42994;51.606;9.988;2023-07-09T05:46:01;99476.38;;;19.16;100.00
57114;BME280;42994;51.606;9.988;2023-07-09T05:48:27;99481.34;;;19.43;100.00
57114;BME280;42994;51.606;9.988;2023-07-09T05:50:54;99481.53;;;19.76;100.00
57114;BME280;42994;51.606;9.988;2023-07-09T05:53:23;99481.75;;;19.87;100.00
57114;BME280;42994;51.606;9.988;2023-07-09T05:55:52;99479.97;;;20.21;100.00
57114;BME280;42994;51.606;9.988;2023-07-09T05:58:19;99481.69;;;20.39;100.00
57114;BME280;42994;51.606;9.988;2023-07-09T06:00:49;99485.31;;;20.45;100.00
57114;BME280;42994;51.606;9.988;2023-07-09T06:03:19;99481.84;;;20.49;100.00
57114;BME280;42994;51.606;9.988;2023-07-09T06:05:47;99485.81;;;20.59;100.00
57114;BME280;42994;51.606;9.988;2023-07-09T06:08:15;99482.81;;;20.89;100.00
57114;BME280;42994;51.606;9.988;2023-07-09T06:10:52;99487.94;;;20.68;100.00
57114;BME280;42994;51.606;9.988;2023-07-09T06:13:19;99482.75;;;20.55;100.00
57114;BME280;42994;51.606;9.988;2023-07-09T06:15:46;99479.66;;;20.97;100.00
57114;BME280;42994;51.606;9.988;2023-07-09T06:18:13;99478.69;;;21.42;100.00
57114;BME280;42994;51.606;9.988;2023-07-09T06:20:40;99479.97;;;21.35;100.00
57114;BME280;42994;51.606;9.988;2023-07-09T06:23:07;99479.03;;;21.85;100.00
57114;BME280;42994;51.606;9.988;2023-07-09T06:25:34;99486.53;;;21.56;100.00
57114;BME280;42994;51.606;9.988;2023-07-09T06:28:02;99482.38;;;22.14;100.00
57114;BME280;42994;51.606;9.988;2023-07-09T06:30:29;99489.50;;;21.71;100.00
57114;BME280;42994;51.606;9.988;2023-07-09T06:32:56;99484.91;;;22.48;100.00
57114;BME280;42994;51.606;9.988;2023-07-09T06:35:22;99487.53;;;22.65;100.00
57114;BME280;42994;51.606;9.988;2023-07-09T06:37:49;99490.16;;;22.87;100.00
57114;BME280;42994;51.606;9.988;2023-07-09T06:40:16;99497.28;;;21.62;100.00
57114;BME280;42994;51.606;9.988;2023-07-09T06:42:43;99500.97;;;21.34;100.00
57114;BME280;42994;51.606;9.988;2023-07-09T06:45:21;99503.59;;;21.29;100.00
57114;BME280;42994;51.606;9.988;2023-07-09T06:47:47;99501.47;;;21.92;100.00
57114;BME280;42994;51.606;9.988;2023-07-09T06:50:15;99496.81;;;22.64;100.00
57114;BME280;42994;51.606;9.988;2023-07-09T06:52:41;99499.09;;;22.23;100.00
57114;BME280;42994;51.606;9.988;2023-07-09T06:55:08;99500.09;;;21.89;100.00
57114;BME280;42994;51.606;9.988;2023-07-09T06:57:35;99497.34;;;21.89;100.00
57114;BME280;42994;51.606;9.988;2023-07-09T07:00:03;99499.75;;;22.08;100.00
57114;BME280;42994;51.606;9.988;2023-07-09T07:02:31;99498.03;;;22.24;100.00
57114;BME280;42994;51.606;9.988;2023-07-09T07:04:58;99493.13;;;23.55;100.00
57114;BME280;42994;51.606;9.988;2023-07-09T07:07:25;99493.19;;;23.71;100.00
57114;BME280;42994;51.606;9.988;2023-07-09T07:09:51;99497.91;;;22.95;100.00
57114;BME280;42994;51.606;9.988;2023-07-09T07:12:28;99498.38;;;22.55;100.00
57114;BME280;42994;51.606;9.988;2023-07-09T07:14:56;99494.75;;;22.76;100.00
57114;BME280;42994;51.606;9.988;2023-07-09T07:17:22;99490.13;;;23.14;100.00
57114;BME280;42994;51.606;9.988;2023-07-09T07:19:51;99485.72;;;24.14;100.00
57114;BME280;42994;51.606;9.988;2023-07-09T07:22:18;99497.09;;;24.79;100.00
57114;BME280;42994;51.606;9.988;2023-07-09T07:24:44;99492.75;;;23.84;100.00
57114;BME280;42994;51.606;9.988;2023-07-09T07:27:11;99496.25;;;25.04;100.00
57114;BME280;42994;51.606;9.988;2023-07-09T07:29:38;99484.28;;;25.86;100.00
57114;BME280;42994;51.606;9.988;2023-07-09T07:32:06;99490.16;;;26.29;100.00
57114;BME280;42994;51.606;9.988;2023-07-09T07:34:33;99499.53;;;25.11;100.00
57114;BME280;42994;51.606;9.988;2023-07-09T07:37:01;99503.75;;;23.99;100.00
57114;BME280;42994;51.606;9.988;2023-07-09T07:39:28;99506.28;;;24.11;100.00
57114;BME280;42994;51.606;9.988;2023-07-09T07:41:55;99497.75;;;24.13;100.00
57114;BME280;42994;51.606;9.988;2023-07-09T07:44:21;99490.66;;;25.71;100.00
57114;BME280;42994;51.606;9.988;2023-07-09T07:46:48;99485.38;;;25.95;100.00
57114;BME280;42994;51.606;9.988;2023-07-09T07:49:15;99499.00;;;25.04;100.00
57114;BME280;42994;51.606;9.988;2023-07-09T07:51:42;99499.16;;;24.26;100.00
57114;BME280;42994;51.606;9.988;2023-07-09T07:54:11;99498.91;;;24.17;100.00
57114;BME280;42994;51.606;9.988;2023-07-09T07:56:38;99497.78;;;24.08;100.00
57114;BME280;42994;51.606;9.988;2023-07-09T07:59:04;99487.38;;;24.20;100.00
57114;BME280;42994;51.606;9.988;2023-07-09T08:01:31;99493.41;;;24.17;100.00
57114;BME280;42994;51.606;9.988;2023-07-09T08:03:59;99487.47;;;24.56;100.00
57114;BME280;42994;51.606;9.988;2023-07-09T08:06:26;99491.56;;;25.41;100.00
57114;BME280;42994;51.606;9.988;2023-07-09T08:08:53;99484.16;;;25.21;100.00
57114;BME280;42994;51.606;9.988;2023-07-09T08:11:21;99478.94;;;26.15;100.00
57114;BME280;42994;51.606;9.988;2023-07-09T08:13:47;99481.34;;;25.67;100.00
57114;BME280;42994;51.606;9.988;2023-07-09T08:16:14;99489.94;;;25.19;100.00
57114;BME280;42994;51.606;9.988;2023-07-09T08:18:41;99486.13;;;25.00;100.00
57114;BME280;42994;51.606;9.988;2023-07-09T08:21:08;99484.19;;;25.00;100.00
57114;BME280;42994;51.606;9.988;2023-07-09T08:23:35;99480.31;;;25.47;100.00
57114;BME280;42994;51.606;9.988;2023-07-09T08:26:02;99473.44;;;26.60;100.00
57114;BME280;42994;51.606;9.988;2023-07-09T08:28:31;99478.63;;;26.66;100.00
57114;BME280;42994;51.606;9.988;2023-07-09T08:30:58;99466.38;;;28.14;98.03
57114;BME280;42994;51.606;9.988;2023-07-09T08:33:25;99462.13;;;28.92;96.00
57114;BME280;42994;51.606;9.988;2023-07-09T08:35:53;99469.25;;;27.36;100.00
57114;BME280;42994;51.606;9.988;2023-07-09T08:38:20;99462.28;;;26.41;100.00
57114;BME280;42994;51.606;9.988;2023-07-09T08:40:56;99470.72;;;26.55;100.00
57114;BME280;42994;51.606;9.988;2023-07-09T08:43:33;99459.66;;;26.25;100.00
57114;BME280;42994;51.606;9.988;2023-07-09T08:46:16;99468.53;;;26.12;100.00
57114;BME280;42994;51.606;9.988;2023-07-09T08:48:47;99459.44;;;26.61;100.00
57114;BME280;42994;51.606;9.988;2023-07-09T08:51:17;99455.63;;;26.52;100.00
57114;BME280;42994;51.606;9.988;2023-07-09T08:53:49;99459.63;;;26.31;100.00
57114;BME280;42994;51.606;9.988;2023-07-09T08:56:17;99453.81;;;26.37;100.00
57114;BME280;42994;51.606;9.988;2023-07-09T08:58:46;99455.88;;;27.49;100.00
57114;BME280;42994;51.606;9.988;2023-07-09T09:01:18;99458.09;;;27.95;100.00
57114;BME280;42994;51.606;9.988;2023-07-09T09:03:49;99451.22;;;27.68;97.67
57114;BME280;42994;51.606;9.988;2023-07-09T09:06:18;99456.75;;;27.15;100.00
57114;BME280;42994;51.606;9.988;2023-07-09T09:08:57;99459.59;;;26.75;100.00
57114;BME280;42994;51.606;9.988;2023-07-09T09:11:34;99457.91;;;26.79;100.00
57114;BME280;42994;51.606;9.988;2023-07-09T09:14:12;99466.59;;;26.92;100.00
57114;BME280;42994;51.606;9.988;2023-07-09T09:16:45;99461.53;;;27.04;100.00
57114;BME280;42994;51.606;9.988;2023-07-09T09:19:18;99461.44;;;27.14;100.00
57114;BME280;42994;51.606;9.988;2023-07-09T09:21:50;99461.09;;;27.21;100.00
57114;BME280;42994;51.606;9.988;2023-07-09T09:24:27;99452.59;;;29.31;93.18
57114;BME280;42994;51.606;9.988;2023-07-09T09:26:58;99444.13;;;28.95;89.42
57114;BME280;42994;51.606;9.988;2023-07-09T09:29:26;99470.16;;;27.51;100.00
57114;BME280;42994;51.606;9.988;2023-07-09T09:31:56;99459.41;;;29.06;94.75
57114;BME280;42994;51.606;9.988;2023-07-09T09:34:27;99458.88;;;29.51;88.65
57114;BME280;42994;51.606;9.988;2023-07-09T09:36:55;99459.69;;;29.38;90.35
57114;BME280;42994;51.606;9.988;2023-07-09T09:39:23;99466.13;;;28.86;87.76
57114;BME280;42994;51.606;9.988;2023-07-09T09:41:53;99461.72;;;29.60;88.54
57114;BME280;42994;51.606;9.988;2023-07-09T09:44:24;99463.47;;;30.47;82.64
57114;BME280;42994;51.606;9.988;2023-07-09T09:46:52;99455.81;;;30.67;74.88
57114;BME280;42994;51.606;9.988;2023-07-09T09:49:22;99456.13;;;30.29;71.09
57114;BME280;42994;51.606;9.988;2023-07-09T09:51:48;99454.78;;;30.63;74.04
57114;BME280;42994;51.606;9.988;2023-07-09T09:54:18;99446.22;;;30.96;69.36
57114;BME280;42994;51.606;9.988;2023-07-09T09:56:48;99446.50;;;29.02;68.12
57114;BME280;42994;51.606;9.988;2023-07-09T09:59:20;99454.38;;;28.43;68.97
57114;BME280;42994;51.606;9.988;2023-07-09T10:01:57;99453.47;;;28.47;63.37
57114;BME280;42994;51.606;9.988;2023-07-09T10:04:25;99441.84;;;28.50;62.44
57114;BME280;42994;51.606;9.988;2023-07-09T10:06:56;99443.25;;;29.00;64.90
57114;BME280;42994;51.606;9.988;2023-07-09T10:09:29;99452.97;;;28.97;72.21
57114;BME280;42994;51.606;9.988;2023-07-09T10:12:05;99449.19;;;29.07;67.08
57114;BME280;42994;51.606;9.988;2023-07-09T10:14:42;99454.72;;;28.74;73.44
57114;BME280;42994;51.606;9.988;2023-07-09T10:17:20;99451.59;;;29.27;70.03
57114;BME280;42994;51.606;9.988;2023-07-09T10:19:53;99434.47;;;30.08;67.52
57114;BME280;42994;51.606;9.988;2023-07-09T10:22:34;99452.41;;;29.14;69.89
57114;BME280;42994;51.606;9.988;2023-07-09T10:25:13;99461.09;;;29.35;74.83
57114;BME280;42994;51.606;9.988;2023-07-09T10:27:52;99449.06;;;28.98;68.85
57114;BME280;42994;51.606;9.988;2023-07-09T10:30:36;99442.56;;;30.86;64.64
57114;BME280;42994;51.606;9.988;2023-07-09T10:33:10;99430.38;;;30.42;61.92
57114;BME280;42994;51.606;9.988;2023-07-09T10:35:43;99431.19;;;31.11;60.26
57114;BME280;42994;51.606;9.988;2023-07-09T10:39:10;99438.78;;;30.82;68.07
57114;BME280;42994;51.606;9.988;2023-07-09T10:43:00;99414.16;;;31.35;53.82
57114;BME280;42994;51.606;9.988;2023-07-09T10:49:49;99415.53;;;30.83;60.11
57114;BME280;42994;51.606;9.988;2023-07-09T10:52:31;99422.34;;;31.09;63.03
57114;BME280;42994;51.606;9.988;2023-07-09T10:55:05;99436.00;;;30.01;69.69
57114;BME280;42994;51.606;9.988;2023-07-09T10:57:42;99440.75;;;29.59;71.33
57114;BME280;42994;51.606;9.988;2023-07-09T11:00:15;99437.91;;;29.36;73.42
57114;BME280;42994;51.606;9.988;2023-07-09T11:02:43;99423.44;;;30.31;66.84
57114;BME280;42994;51.606;9.988;2023-07-09T11:05:12;99416.81;;;30.18;60.11
57114;BME280;42994;51.606;9.988;2023-07-09T11:07:42;99402.41;;;30.07;52.29
57114;BME280;42994;51.606;9.988;2023-07-09T11:10:22;99408.63;;;30.50;54.92
57114;BME280;42994;51.606;9.988;2023-07-09T11:12:55;99407.16;;;31.37;52.00
57114;BME280;42994;51.606;9.988;2023-07-09T11:15:31;99390.00;;;31.75;46.24
57114;BME280;42994;51.606;9.988;2023-07-09T11:17:58;99408.63;;;30.72;47.98
57114;BME280;42994;51.606;9.988;2023-07-09T11:20:32;99400.13;;;30.91;49.04
57114;BME280;42994;51.606;9.988;2023-07-09T11:23:03;99409.13;;;30.52;53.43
57114;BME280;42994;51.606;9.988;2023-07-09T11:25:39;99402.31;;;30.80;50.95
57114;BME280;42994;51.606;9.988;2023-07-09T11:28:07;99395.63;;;31.04;49.53
57114;BME280;42994;51.606;9.988;2023-07-09T11:30:46;99393.94;;;31.92;48.39
57114;BME280;42994;51.606;9.988;2023-07-09T11:33:18;99402.72;;;31.68;52.66
57114;BME280;42994;51.606;9.988;2023-07-09T11:35:48;99396.38;;;31.36;52.63
57114;BME280;42994;51.606;9.988;2023-07-09T11:38:17;99391.94;;;30.86;50.64
57114;BME280;42994;51.606;9.988;2023-07-09T11:40:48;99388.91;;;30.74;50.51
57114;BME280;42994;51.606;9.988;2023-07-09T11:43:31;99379.72;;;31.18;50.66
57114;BME280;42994;51.606;9.988;2023-07-09T11:46:07;99390.78;;;30.56;51.49
57114;BME280;42994;51.606;9.988;2023-07-09T11:48:39;99399.38;;;30.77;54.03
57114;BME280;42994;51.606;9.988;2023-07-09T11:51:14;99390.78;;;31.58;54.63
57114;BME280;42994;51.606;9.988;2023-07-09T11:53:46;99384.94;;;31.69;53.90
57114;BME280;42994;51.606;9.988;2023-07-09T11:56:14;99398.84;;;31.37;53.72
57114;BME280;42994;51.606;9.988;2023-07-09T11:58:51;99392.41;;;31.59;54.33
57114;BME280;42994;51.606;9.988;2023-07-09T12:01:20;99380.66;;;31.54;50.58
57114;BME280;42994;51.606;9.988;2023-07-09T12:03:48;99389.56;;;32.08;51.43
57114;BME280;42994;51.606;9.988;2023-07-09T12:06:20;99384.31;;;32.42;49.27
57114;BME280;42994;51.606;9.988;2023-07-09T12:08:48;99394.00;;;32.09;50.04
57114;BME280;42994;51.606;9.988;2023-07-09T12:11:21;99380.41;;;32.60;49.27
57114;BME280;42994;51.606;9.988;2023-07-09T12:13:48;99385.09;;;31.55;48.51
57114;BME280;42994;51.606;9.988;2023-07-09T12:16:24;99371.44;;;32.28;48.49
57114;BME280;42994;51.606;9.988;2023-07-09T12:18:51;99391.53;;;32.08;54.67
57114;BME280;42994;51.606;9.988;2023-07-09T12:21:19;99378.72;;;32.76;54.37
57114;BME280;42994;51.606;9.988;2023-07-09T12:26:16;99368.16;;;32.52;49.87
57114;BME280;42994;51.606;9.988;2023-07-09T12:28:49;99354.63;;;31.81;48.43
57114;BME280;42994;51.606;9.988;2023-07-09T12:31:17;99362.31;;;33.01;51.05
57114;BME280;42994;51.606;9.988;2023-07-09T12:33:47;99353.13;;;33.09;48.24
57114;BME280;42994;51.606;9.988;2023-07-09T12:36:17;99337.19;;;32.33;44.73
57114;BME280;42994;51.606;9.988;2023-07-09T12:38:47;99344.88;;;32.92;46.88
57114;BME280;42994;51.606;9.988;2023-07-09T12:41:19;99348.75;;;32.61;46.98
57114;BME280;42994;51.606;9.988;2023-07-09T12:43:48;99351.41;;;32.87;49.01
57114;BME280;42994;51.606;9.988;2023-07-09T12:46:15;99344.16;;;33.04;46.55
57114;BME280;42994;51.606;9.988;2023-07-09T12:48:43;99330.69;;;33.23;45.48
57114;BME280;42994;51.606;9.988;2023-07-09T12:51:16;99347.44;;;32.41;49.37
57114;BME280;42994;51.606;9.988;2023-07-09T12:53:46;99340.78;;;32.25;48.25
57114;BME280;42994;51.606;9.988;2023-07-09T12:56:15;99347.13;;;31.90;48.80
57114;BME280;42994;51.606;9.988;2023-07-09T12:58:42;99339.16;;;31.80;47.79
57114;BME280;42994;51.606;9.988;2023-07-09T13:01:17;99340.75;;;31.55;48.25
57114;BME280;42994;51.606;9.988;2023-07-09T13:03:54;99322.19;;;32.90;46.94
57114;BME280;42994;51.606;9.988;2023-07-09T13:06:26;99315.72;;;33.07;47.75
57114;BME280;42994;51.606;9.988;2023-07-09T13:08:57;99298.63;;;32.96;44.85
57114;BME280;42994;51.606;9.988;2023-07-09T13:11:25;99295.63;;;32.07;42.82
57114;BME280;42994;51.606;9.988;2023-07-09T13:13:56;99309.09;;;32.90;46.69